Portada
METAR-TAF:

METAR-TAF

Aeropuertos :

Ghriss, Argelia

latitud: 35-12N, longitud: 000-08E, altitud: 514 m

Observación

El informe se hizo hace 19 minutos, a las 08:00 UTC
Viento calma
Temperatura 10°C
Humedad 87%
Presión 1026 hPa
Visibilidad 10 km o más
sin nubes por debajo de 1500 m y sin presencia de cumulonimbus.

METAR: DAOV 280800Z 00000KT CAVOK 10/08 Q1026

Hora: 09:20 (08:20 UTC)

Pronóstico

El informe se hizo hace 3 horas y 20 minutos, a las 05:00 UTC
Pronóstico válido del 28 a las 06 UTC al 28 a las 15 UTC
Viento 2 kt con dirección variable
Visibilidad 10 km o más
sin nubes por debajo de 1500 m y sin presencia de cumulonimbus.
Probabilidad 30% :
Temporalmente
del 28 a las 06 UTC al 28 a las 08 UTC
Visibilidad: 5000 m
Nubes dispersas a una altura de 1600 ft
neblina

TAF: DAOV 280500Z 2806/2815 VRB02KT CAVOK PROB30 TEMPO 2806/2808 5000 BR SCT016

Observaciones y pronósticos meteorológicos de más de 4000 aeropuertos (mensajes METAR y TAF).

Los puntos amarillos y rojos representan las estaciones disponibles.

Ponga el ratón en el punto deseado para ver el nombre de la estación.

Haga clic para ver las observaciones y los pronósticos meteorológicos.

Para cambiar el mapa : haga clic en los botones verdes con una cruz de color negro para hacer un zoom, en el botón verde con un guión para alejar o en las flechas verdes para mapas adyacentes.


METAR-TAF: